createdAt,value
2023-04-28T00:02:24.610Z,98476.94
2023-04-28T00:04:53.066Z,98468.22
2023-04-28T00:07:20.791Z,98475.28
2023-04-28T00:09:49.041Z,98473.44
2023-04-28T00:12:16.690Z,98472.69
2023-04-28T00:14:44.731Z,98473.75
2023-04-28T00:17:11.986Z,98468.72
2023-04-28T00:19:39.546Z,98473.38
2023-04-28T00:22:06.802Z,98466.59
2023-04-28T00:24:36.327Z,98469.03
2023-04-28T00:27:03.824Z,98467.13
2023-04-28T00:29:31.355Z,98466.09
2023-04-28T00:31:58.700Z,98460.31
2023-04-28T00:34:26.632Z,98470.16
2023-04-28T00:36:54.068Z,98464.69
2023-04-28T00:39:23.216Z,98466.19
2023-04-28T00:41:50.496Z,98462.84
2023-04-28T00:44:18.293Z,98458.56
2023-04-28T00:46:46.102Z,98460.31
2023-04-28T00:49:15.445Z,98470.88
2023-04-28T00:51:42.750Z,98469.38
2023-04-28T00:54:14.841Z,98469.44
2023-04-28T00:56:43.788Z,98467.81
2023-04-28T00:59:11.319Z,98465.31
2023-04-28T01:01:38.828Z,98465.31
2023-04-28T01:04:06.637Z,98459.28
2023-04-28T01:06:35.179Z,98467.34
2023-04-28T01:09:02.704Z,98462.50
2023-04-28T01:11:29.905Z,98468.75
2023-04-28T01:13:59.509Z,98471.22
2023-04-28T01:16:27.615Z,98471.38
2023-04-28T01:18:55.493Z,98467.72
2023-04-28T01:21:32.984Z,98465.22
2023-04-28T01:24:06.384Z,98473.94
2023-04-28T01:26:33.736Z,98471.38
2023-04-28T01:29:01.723Z,98468.50
2023-04-28T01:31:31.196Z,98466.28
2023-04-28T01:33:59.475Z,98460.78
2023-04-28T01:36:28.601Z,98459.25
2023-04-28T01:38:56.451Z,98455.66
2023-04-28T01:41:23.716Z,98459.63
2023-04-28T01:43:51.318Z,98466.22
2023-04-28T01:46:18.811Z,98468.56
2023-04-28T01:48:46.614Z,98466.63
2023-04-28T01:51:14.024Z,98465.13
2023-04-28T01:53:41.528Z,98468.91
2023-04-28T01:56:08.992Z,98471.50
2023-04-28T01:58:36.526Z,98469.22
2023-04-28T02:01:03.989Z,98473.50
2023-04-28T02:03:31.754Z,98470.47
2023-04-28T02:05:59.333Z,98466.56
2023-04-28T02:08:27.030Z,98468.78
2023-04-28T02:10:54.309Z,98464.03
2023-04-28T02:13:21.817Z,98459.97
2023-04-28T02:15:49.115Z,98458.13
2023-04-28T02:18:16.724Z,98460.81
2023-04-28T02:20:43.974Z,98459.13
2023-04-28T02:23:11.461Z,98457.97
2023-04-28T02:25:38.714Z,98455.38
2023-04-28T02:28:06.254Z,98458.81
2023-04-28T02:30:33.518Z,98455.38
2023-04-28T02:33:01.234Z,98460.56
2023-04-28T02:35:28.762Z,98457.25
2023-04-28T02:37:56.440Z,98453.22
2023-04-28T02:40:23.763Z,98464.63
2023-04-28T02:42:51.352Z,98450.81
2023-04-28T02:45:18.712Z,98443.31
2023-04-28T02:47:46.398Z,98451.19
2023-04-28T02:50:16.952Z,98448.38
2023-04-28T02:52:44.914Z,98448.31
2023-04-28T02:55:12.220Z,98454.00
2023-04-28T02:57:39.763Z,98454.00
2023-04-28T03:00:10.465Z,98444.97
2023-04-28T03:02:38.159Z,98448.69
2023-04-28T03:05:05.997Z,98445.44
2023-04-28T03:07:33.547Z,98451.00
2023-04-28T03:10:01.061Z,98442.44
2023-04-28T03:12:28.664Z,98438.16
2023-04-28T03:14:56.061Z,98438.47
2023-04-28T03:17:23.734Z,98440.47
2023-04-28T03:19:50.983Z,98443.75
2023-04-28T03:22:18.705Z,98453.72
2023-04-28T03:24:46.112Z,98447.94
2023-04-28T03:27:13.669Z,98444.31
2023-04-28T03:29:41.084Z,98436.63
2023-04-28T03:32:09.159Z,98429.75
2023-04-28T03:34:36.959Z,98434.53
2023-04-28T03:37:04.835Z,98435.69
2023-04-28T03:39:32.121Z,98434.22
2023-04-28T03:41:59.908Z,98441.56
2023-04-28T03:44:27.354Z,98433.94
2023-04-28T03:46:54.911Z,98433.81
2023-04-28T03:49:22.281Z,98434.53
2023-04-28T03:51:51.463Z,98431.94
2023-04-28T03:54:18.769Z,98428.19
2023-04-28T03:56:46.577Z,98417.41
2023-04-28T03:59:14.067Z,98419.94
2023-04-28T04:01:41.521Z,98428.13
2023-04-28T04:04:09.018Z,98425.25
2023-04-28T04:06:36.768Z,98421.31
2023-04-28T04:09:04.200Z,98430.16
2023-04-28T04:11:31.765Z,98432.09
2023-04-28T04:13:58.998Z,98433.94
2023-04-28T04:16:27.009Z,98427.56
2023-04-28T04:18:54.232Z,98444.31
2023-04-28T04:21:22.060Z,98439.41
2023-04-28T04:23:49.367Z,98447.63
2023-04-28T04:26:16.956Z,98450.63
2023-04-28T04:28:44.174Z,98457.13
2023-04-28T04:31:12.601Z,98451.19
2023-04-28T04:33:39.984Z,98455.25
2023-04-28T04:36:07.937Z,98456.72
2023-04-28T04:38:35.285Z,98448.88
2023-04-28T04:41:02.782Z,98450.19
2023-04-28T04:43:30.023Z,98455.25
2023-04-28T04:45:57.581Z,98449.19
2023-04-28T04:48:24.942Z,98451.44
2023-04-28T04:50:52.427Z,98447.00
2023-04-28T04:53:19.683Z,98452.38
2023-04-28T04:55:47.317Z,98456.25
2023-04-28T04:58:14.784Z,98453.66
2023-04-28T05:00:42.310Z,98451.41
2023-04-28T05:03:10.097Z,98451.78
2023-04-28T05:05:37.919Z,98457.09
2023-04-28T05:08:06.069Z,98455.31
2023-04-28T05:10:34.004Z,98452.66
2023-04-28T05:13:01.258Z,98448.16
2023-04-28T05:15:29.502Z,98449.91
2023-04-28T05:17:57.386Z,98452.84
2023-04-28T05:20:24.968Z,98453.94
2023-04-28T05:22:52.211Z,98448.91
2023-04-28T05:25:19.753Z,98447.69
2023-04-28T05:27:47.023Z,98452.09
2023-04-28T05:30:15.902Z,98452.50
2023-04-28T05:32:43.230Z,98456.59
2023-04-28T05:35:10.812Z,98450.66
2023-04-28T05:37:38.286Z,98452.28
2023-04-28T05:40:09.178Z,98455.31
2023-04-28T05:42:37.957Z,98454.09
2023-04-28T05:45:09.934Z,98447.56
2023-04-28T05:47:37.761Z,98454.31
2023-04-28T05:50:07.958Z,98455.59
2023-04-28T05:52:37.052Z,98449.81
2023-04-28T05:55:05.353Z,98455.31
2023-04-28T05:57:45.622Z,98448.34
2023-04-28T06:00:20.147Z,98457.75
2023-04-28T06:02:47.611Z,98449.41
2023-04-28T06:05:15.625Z,98443.69
2023-04-28T06:07:43.111Z,98455.44
2023-04-28T06:10:11.567Z,98453.72
2023-04-28T06:12:39.528Z,98456.88
2023-04-28T06:15:07.644Z,98459.38
2023-04-28T06:17:34.995Z,98449.53
2023-04-28T06:20:02.598Z,98453.38
2023-04-28T06:22:29.833Z,98457.03
2023-04-28T06:24:57.422Z,98451.50
2023-04-28T06:27:24.813Z,98452.13
2023-04-28T06:29:52.351Z,98456.31
2023-04-28T06:32:19.800Z,98446.09
2023-04-28T06:34:47.406Z,98454.88
2023-04-28T06:37:14.627Z,98450.75
2023-04-28T06:39:42.167Z,98456.34
2023-04-28T06:42:09.379Z,98450.53
2023-04-28T06:44:36.934Z,98450.19
2023-04-28T06:47:04.357Z,98455.63
2023-04-28T06:49:32.026Z,98450.78
2023-04-28T06:51:59.249Z,98445.38
2023-04-28T06:54:26.870Z,98451.25
2023-04-28T06:56:54.145Z,98435.81
2023-04-28T06:59:21.947Z,98430.28
2023-04-28T07:01:49.230Z,98437.66
2023-04-28T07:04:17.180Z,98437.91
2023-04-28T07:06:44.690Z,98435.84
2023-04-28T07:09:12.466Z,98434.91
2023-04-28T07:11:39.856Z,98431.84
2023-04-28T07:14:08.472Z,98427.16
2023-04-28T07:16:36.410Z,98425.19
2023-04-28T07:19:04.086Z,98428.72
2023-04-28T07:21:31.449Z,98428.34
2023-04-28T07:23:59.015Z,98424.28
2023-04-28T07:26:26.317Z,98427.25
2023-04-28T07:28:53.917Z,98425.59
2023-04-28T07:31:21.950Z,98421.44
2023-04-28T07:33:49.478Z,98414.31
2023-04-28T07:36:17.024Z,98412.03
2023-04-28T07:38:44.819Z,98406.09
2023-04-28T07:41:12.622Z,98414.88
2023-04-28T07:43:41.290Z,98412.53
2023-04-28T07:46:08.901Z,98420.44
2023-04-28T07:48:36.646Z,98409.28
2023-04-28T07:51:03.995Z,98405.28
2023-04-28T07:53:31.586Z,98402.25
2023-04-28T07:55:59.428Z,98406.53
2023-04-28T07:58:27.072Z,98406.47
2023-04-28T08:00:54.304Z,98402.88
2023-04-28T08:03:22.239Z,98395.06
2023-04-28T08:05:50.236Z,98396.19
2023-04-28T08:08:18.434Z,98392.00
2023-04-28T08:10:45.890Z,98396.47
2023-04-28T08:13:13.579Z,98395.06
2023-04-28T08:15:40.895Z,98384.09
2023-04-28T08:18:08.930Z,98393.50
2023-04-28T08:20:36.330Z,98390.22
2023-04-28T08:23:04.118Z,98391.06
2023-04-28T08:25:31.509Z,98386.03
2023-04-28T08:27:59.227Z,98381.59
2023-04-28T08:30:26.812Z,98384.59
2023-04-28T08:32:54.500Z,98378.16
2023-04-28T08:35:21.906Z,98382.03
2023-04-28T08:37:49.762Z,98383.84
2023-04-28T08:40:17.063Z,98377.19
2023-04-28T08:42:46.370Z,98370.91
2023-04-28T08:45:15.821Z,98369.66
2023-04-28T08:47:47.899Z,98361.69
2023-04-28T08:50:17.588Z,98372.13
2023-04-28T08:52:46.260Z,98371.84
2023-04-28T08:55:14.245Z,98372.97
2023-04-28T08:57:51.523Z,98363.06
2023-04-28T09:00:19.085Z,98361.03
2023-04-28T09:02:46.826Z,98366.56
2023-04-28T09:05:15.230Z,98358.50
2023-04-28T09:07:47.096Z,98353.69
2023-04-28T09:10:24.151Z,98349.19
2023-04-28T09:12:54.706Z,98338.34
2023-04-28T09:15:36.294Z,98346.84
2023-04-28T09:18:08.869Z,98362.28
2023-04-28T09:20:37.209Z,98349.22
2023-04-28T09:23:17.685Z,98359.75
2023-04-28T09:26:11.420Z,98360.13
2023-04-28T09:28:39.014Z,98364.75
2023-04-28T09:31:06.477Z,98353.22
2023-04-28T09:34:05.965Z,98352.44
2023-04-28T09:36:48.982Z,98353.81
2023-04-28T09:39:33.439Z,98349.13
2023-04-28T09:42:03.650Z,98356.47
2023-04-28T09:44:31.209Z,98356.94
2023-04-28T09:46:59.581Z,98339.22
2023-04-28T09:49:27.155Z,98320.81
2023-04-28T09:51:54.516Z,98330.47
2023-04-28T09:54:24.275Z,98324.47
2023-04-28T09:56:52.692Z,98324.34
2023-04-28T09:59:20.356Z,98323.16
2023-04-28T10:01:49.625Z,98317.25
2023-04-28T10:04:17.796Z,98311.66
2023-04-28T10:06:46.004Z,98298.00
2023-04-28T10:09:14.218Z,98305.66
2023-04-28T10:11:42.465Z,98273.19
2023-04-28T10:14:11.440Z,98275.31
2023-04-28T10:16:39.376Z,98269.38
2023-04-28T10:19:09.241Z,98261.41
2023-04-28T10:21:54.328Z,98275.47
2023-04-28T10:24:33.211Z,98268.44
2023-04-28T10:27:09.423Z,98264.00
2023-04-28T10:29:37.699Z,98252.09
2023-04-28T10:32:29.143Z,98242.03
2023-04-28T10:35:23.613Z,98252.56
2023-04-28T10:38:09.266Z,98262.31
2023-04-28T10:40:42.611Z,98239.97
2023-04-28T10:43:32.118Z,98239.09
2023-04-28T10:46:06.525Z,98244.66
2023-04-28T10:48:33.993Z,98236.97
2023-04-28T10:51:07.531Z,98239.06
2023-04-28T10:53:47.453Z,98230.78
2023-04-28T10:56:22.738Z,98228.06
2023-04-28T10:59:00.619Z,98219.81
2023-04-28T11:01:34.649Z,98208.50
2023-04-28T11:04:18.180Z,98182.19
2023-04-28T11:06:47.997Z,98175.59
2023-04-28T11:09:15.375Z,98163.06
2023-04-28T11:12:06.877Z,98164.53
2023-04-28T11:14:37.058Z,98160.19
2023-04-28T11:17:09.497Z,98158.09
2023-04-28T11:19:46.633Z,98151.72
2023-04-28T11:22:18.582Z,98161.28
2023-04-28T11:25:00.213Z,98160.88
2023-04-28T11:27:31.446Z,98158.56
2023-04-28T11:29:59.431Z,98153.91
2023-04-28T11:32:33.506Z,98151.19
2023-04-28T11:35:01.626Z,98140.66
2023-04-28T11:37:29.194Z,98151.19
2023-04-28T11:39:57.504Z,98147.53
2023-04-28T11:42:27.230Z,98142.09
2023-04-28T11:47:42.606Z,98126.63
2023-04-28T11:50:10.094Z,98140.63
2023-04-28T11:52:49.063Z,98140.16
2023-04-28T11:55:18.088Z,98132.38
2023-04-28T11:57:45.873Z,98137.25
2023-04-28T11:59:21.436Z,98125.88
2023-04-28T12:00:19.247Z,98128.47
2023-04-28T12:02:47.194Z,98125.03
2023-04-28T12:05:14.770Z,98120.31
2023-04-28T12:07:44.426Z,98120.22
2023-04-28T12:10:17.007Z,98123.31
2023-04-28T12:12:52.004Z,98127.81
2023-04-28T12:15:22.536Z,98124.09
2023-04-28T12:17:51.619Z,98112.88
2023-04-28T12:20:39.206Z,98103.56
2023-04-28T12:23:07.929Z,98106.50
2023-04-28T12:25:46.344Z,98103.81
2023-04-28T12:28:14.142Z,98092.81
2023-04-28T12:30:42.653Z,98102.19
2023-04-28T12:33:29.086Z,98081.03
2023-04-28T12:35:57.998Z,98091.97
2023-04-28T12:38:26.443Z,98085.88
2023-04-28T12:40:54.465Z,98078.59
2023-04-28T12:43:25.819Z,98074.94
2023-04-28T12:45:55.842Z,98072.66
2023-04-28T12:48:27.396Z,98060.34
2023-04-28T12:50:54.616Z,98060.41
2023-04-28T12:53:22.188Z,98076.19
2023-04-28T12:55:49.519Z,98059.56
2023-04-28T12:58:18.046Z,98062.78
2023-04-28T13:00:45.336Z,98054.47
2023-04-28T13:03:13.031Z,98048.97
2023-04-28T13:05:40.559Z,98039.84
2023-04-28T13:08:08.319Z,98044.13
2023-04-28T13:10:35.533Z,98039.78
2023-04-28T13:13:03.219Z,98036.38
2023-04-28T13:15:31.624Z,98030.63
2023-04-28T13:17:59.965Z,98047.53
2023-04-28T13:20:27.244Z,98030.91
2023-04-28T13:22:54.773Z,98051.13
2023-04-28T13:25:22.162Z,98034.41
2023-04-28T13:27:50.036Z,98036.56
2023-04-28T13:30:17.382Z,98014.53
2023-04-28T13:32:44.981Z,98016.16
2023-04-28T13:35:12.221Z,98009.66
2023-04-28T13:37:45.679Z,98010.25
2023-04-28T13:40:13.535Z,98010.84
2023-04-28T13:42:41.148Z,97996.81
2023-04-28T13:45:08.793Z,97991.97
2023-04-28T13:47:36.400Z,98000.09
2023-04-28T13:50:03.836Z,97998.16
2023-04-28T13:52:31.620Z,97990.88
2023-04-28T13:54:58.824Z,97985.00
2023-04-28T13:57:27.092Z,97990.22
2023-04-28T13:59:54.392Z,97991.66
2023-04-28T14:02:22.114Z,97988.72
2023-04-28T14:04:56.037Z,97989.59
2023-04-28T14:07:23.665Z,97996.81
2023-04-28T14:09:51.016Z,97983.28
2023-04-28T14:12:18.508Z,97983.03
2023-04-28T14:14:49.535Z,97986.22
2023-04-28T14:17:18.586Z,97976.84
2023-04-28T14:19:46.899Z,97978.81
2023-04-28T14:22:14.431Z,97973.44
2023-04-28T14:24:43.277Z,97974.94
2023-04-28T14:27:11.259Z,97969.69
2023-04-28T14:29:39.179Z,97966.28
2023-04-28T14:32:06.708Z,97964.28
2023-04-28T14:34:34.046Z,97965.31
2023-04-28T14:37:01.721Z,97954.44
2023-04-28T14:39:28.988Z,97952.41
2023-04-28T14:41:56.682Z,97969.81
2023-04-28T14:44:24.079Z,97972.19
2023-04-28T14:46:51.962Z,97957.81
2023-04-28T14:49:28.942Z,97953.22
2023-04-28T14:51:57.029Z,97963.66
2023-04-28T14:54:24.574Z,97956.06
2023-04-28T14:56:52.103Z,97957.19
2023-04-28T14:59:19.630Z,97958.44
2023-04-28T15:01:47.226Z,97963.34
2023-04-28T15:04:14.802Z,97950.06
2023-04-28T15:06:42.481Z,97952.56
2023-04-28T15:09:10.748Z,97950.25
2023-04-28T15:11:38.299Z,97952.78
2023-04-28T15:14:06.539Z,97949.16
2023-04-28T15:16:34.184Z,97949.09
2023-04-28T15:19:01.516Z,97938.28
2023-04-28T15:21:29.901Z,97935.94
2023-04-28T15:23:57.751Z,97927.84
2023-04-28T15:26:29.725Z,97937.31
2023-04-28T15:28:57.958Z,97931.53
2023-04-28T15:31:25.975Z,97933.59
2023-04-28T15:33:53.294Z,97931.00
2023-04-28T15:36:21.413Z,97925.41
2023-04-28T15:38:49.126Z,97918.66
2023-04-28T15:41:16.638Z,97924.72
2023-04-28T15:43:46.215Z,97926.94
2023-04-28T15:46:17.224Z,97930.19
2023-04-28T15:48:44.956Z,97915.94
2023-04-28T15:51:12.519Z,97917.53
2023-04-28T15:53:40.292Z,97912.03
2023-04-28T15:56:08.817Z,97902.91
2023-04-28T15:58:36.349Z,97905.72
2023-04-28T16:01:05.296Z,97902.91
2023-04-28T16:03:32.850Z,97897.78
2023-04-28T16:06:01.226Z,97898.16
2023-04-28T16:08:37.851Z,97897.47
2023-04-28T16:11:05.582Z,97899.44
2023-04-28T16:13:33.102Z,97897.16
2023-04-28T16:16:00.663Z,97903.25
2023-04-28T16:18:28.067Z,97908.38
2023-04-28T16:20:55.648Z,97902.78
2023-04-28T16:23:23.028Z,97907.94
2023-04-28T16:25:51.055Z,97906.41
2023-04-28T16:28:18.381Z,97902.34
2023-04-28T16:30:47.168Z,97895.16
2023-04-28T16:33:14.459Z,97893.81
2023-04-28T16:35:42.132Z,97888.19
2023-04-28T16:38:18.558Z,97884.72
2023-04-28T16:40:46.152Z,97879.44
2023-04-28T16:43:13.424Z,97873.47
2023-04-28T16:45:41.620Z,97870.03
2023-04-28T16:48:08.956Z,97876.31
2023-04-28T16:50:38.237Z,97880.44
2023-04-28T16:53:08.041Z,97878.13
2023-04-28T16:55:36.759Z,97884.28
2023-04-28T16:58:04.739Z,97875.09
2023-04-28T17:00:32.650Z,97879.19
2023-04-28T17:03:00.098Z,97877.94
2023-04-28T17:05:27.969Z,97875.28
2023-04-28T17:07:55.339Z,97875.47
2023-04-28T17:10:23.028Z,97878.47
2023-04-28T17:12:50.486Z,97872.47
2023-04-28T17:15:18.614Z,97875.28
2023-04-28T17:17:50.944Z,97865.84
2023-04-28T17:20:20.352Z,97870.03
2023-04-28T17:22:48.855Z,97876.69
2023-04-28T17:25:17.170Z,97866.13
2023-04-28T17:27:44.602Z,97869.69
2023-04-28T17:30:13.543Z,97867.91
2023-04-28T17:32:42.854Z,97869.50
2023-04-28T17:35:10.605Z,97875.72
2023-04-28T17:37:38.256Z,97885.03
2023-04-28T17:40:06.483Z,97894.25
2023-04-28T17:42:33.669Z,97896.53
2023-04-28T17:45:01.354Z,97893.66
2023-04-28T17:47:28.678Z,97898.03
2023-04-28T17:49:56.834Z,97892.75
2023-04-28T17:52:24.173Z,97888.78
2023-04-28T17:54:52.226Z,97895.03
2023-04-28T17:57:21.819Z,97899.31
2023-04-28T17:59:51.025Z,97894.63
2023-04-28T18:02:18.695Z,97894.81
2023-04-28T18:04:46.979Z,97893.22
2023-04-28T18:07:14.319Z,97897.84
2023-04-28T18:09:41.999Z,97902.78
2023-04-28T18:12:09.799Z,97904.69
2023-04-28T18:14:37.401Z,97897.59
2023-04-28T18:17:04.651Z,97899.44
2023-04-28T18:19:32.421Z,97902.38
2023-04-28T18:22:00.241Z,97909.88
2023-04-28T18:24:27.804Z,97905.94
2023-04-28T18:26:55.089Z,97898.69
2023-04-28T18:29:22.638Z,97910.06
2023-04-28T18:31:49.995Z,97911.72
2023-04-28T18:34:18.063Z,97907.69
2023-04-28T18:36:45.437Z,97906.69
2023-04-28T18:39:13.135Z,97907.22
2023-04-28T18:41:40.410Z,97900.81
2023-04-28T18:44:07.926Z,97911.72
2023-04-28T18:46:35.617Z,97908.72
2023-04-28T18:49:03.709Z,97916.66
2023-04-28T18:51:31.224Z,97914.31
2023-04-28T18:53:59.172Z,97916.25
2023-04-28T18:56:26.579Z,97922.81
2023-04-28T18:58:54.068Z,97921.16
2023-04-28T19:01:21.866Z,97920.19
2023-04-28T19:03:49.545Z,97928.75
2023-04-28T19:06:17.581Z,97932.91
2023-04-28T19:08:45.226Z,97930.47
2023-04-28T19:11:12.489Z,97930.19
2023-04-28T19:13:44.721Z,97929.56
2023-04-28T19:16:12.201Z,97929.28
2023-04-28T19:18:42.041Z,97931.94
2023-04-28T19:21:12.249Z,97928.34
2023-04-28T19:23:40.997Z,97926.41
2023-04-28T19:26:09.666Z,97923.00
2023-04-28T19:28:37.327Z,97928.44
2023-04-28T19:31:04.651Z,97919.78
2023-04-28T19:33:32.822Z,97921.56
2023-04-28T19:36:00.344Z,97920.47
2023-04-28T19:38:28.656Z,97917.88
2023-04-28T19:41:03.651Z,97924.31
2023-04-28T19:43:31.661Z,97920.38
2023-04-28T19:45:58.974Z,97916.72
2023-04-28T19:48:26.750Z,97915.88
2023-04-28T19:50:54.447Z,97908.44
2023-04-28T19:53:22.134Z,97918.38
2023-04-28T19:55:49.444Z,97908.84
2023-04-28T19:58:17.434Z,97915.66
2023-04-28T20:00:45.477Z,97915.59
2023-04-28T20:03:14.980Z,97910.34
2023-04-28T20:05:42.370Z,97912.03
2023-04-28T20:08:09.918Z,97906.50
2023-04-28T20:10:37.254Z,97908.72
2023-04-28T20:13:07.060Z,97907.34
2023-04-28T20:15:34.732Z,97905.09
2023-04-28T20:18:02.326Z,97898.47
2023-04-28T20:20:30.118Z,97899.44
2023-04-28T20:22:57.651Z,97903.59
2023-04-28T20:25:25.089Z,97905.09
2023-04-28T20:27:52.594Z,97891.66
2023-04-28T20:30:20.178Z,97907.19
2023-04-28T20:32:48.834Z,97907.03
2023-04-28T20:35:17.610Z,97901.78
2023-04-28T20:37:45.229Z,97899.00
2023-04-28T20:40:12.887Z,97903.44
2023-04-28T20:42:40.753Z,97902.59
2023-04-28T20:45:08.402Z,97903.44
2023-04-28T20:47:36.702Z,97894.03
2023-04-28T20:50:04.945Z,97893.06
2023-04-28T20:52:32.609Z,97893.31
2023-04-28T20:55:00.461Z,97887.63
2023-04-28T20:57:28.070Z,97884.56
2023-04-28T20:59:55.439Z,97885.38
2023-04-28T21:02:23.342Z,97882.19
2023-04-28T21:04:51.027Z,97884.19
2023-04-28T21:07:18.841Z,97886.66
2023-04-28T21:09:46.074Z,97889.28
2023-04-28T21:12:13.713Z,97888.03
2023-04-28T21:14:41.044Z,97886.97
2023-04-28T21:17:09.068Z,97889.28
2023-04-28T21:19:36.974Z,97892.59
2023-04-28T21:22:04.560Z,97888.69
2023-04-28T21:24:31.819Z,97886.59
2023-04-28T21:27:04.369Z,97881.94
2023-04-28T21:29:32.101Z,97884.09
2023-04-28T21:31:59.650Z,97875.53
2023-04-28T21:34:27.727Z,97876.91
2023-04-28T21:36:55.373Z,97880.81
2023-04-28T21:39:22.628Z,97880.53
2023-04-28T21:41:50.313Z,97871.69
2023-04-28T21:44:17.640Z,97864.41
2023-04-28T21:46:45.253Z,97873.13
2023-04-28T21:49:13.814Z,97868.69
2023-04-28T21:51:45.968Z,97872.59
2023-04-28T21:54:14.469Z,97864.28
2023-04-28T21:56:42.123Z,97860.16
2023-04-28T21:59:09.564Z,97862.34
2023-04-28T22:01:38.480Z,97862.63
2023-04-28T22:04:08.792Z,97862.09
2023-04-28T22:06:36.792Z,97860.41
2023-04-28T22:09:05.248Z,97858.50
2023-04-28T22:11:33.352Z,97862.91
2023-04-28T22:14:00.999Z,97859.53
2023-04-28T22:16:28.860Z,97858.31
2023-04-28T22:18:56.187Z,97864.13
2023-04-28T22:21:24.395Z,97853.63
2023-04-28T22:23:51.732Z,97857.91
2023-04-28T22:26:20.296Z,97855.97
2023-04-28T22:28:48.748Z,97858.50
2023-04-28T22:31:16.595Z,97853.06
2023-04-28T22:33:44.422Z,97856.25
2023-04-28T22:36:12.152Z,97849.06
2023-04-28T22:38:46.150Z,97855.28
2023-04-28T22:41:13.768Z,97840.22
2023-04-28T22:43:40.999Z,97837.59
2023-04-28T22:46:08.937Z,97842.44
2023-04-28T22:48:36.163Z,97846.84
2023-04-28T22:51:03.815Z,97844.63
2023-04-28T22:53:31.034Z,97843.09
2023-04-28T22:56:00.552Z,97843.50
2023-04-28T22:58:27.746Z,97838.50
2023-04-28T23:00:59.860Z,97843.19
2023-04-28T23:03:27.465Z,97838.50
2023-04-28T23:05:55.196Z,97834.06
2023-04-28T23:08:25.248Z,97841.09
2023-04-28T23:10:57.200Z,97833.53
2023-04-28T23:13:25.310Z,97839.31
2023-04-28T23:15:53.218Z,97831.00
2023-04-28T23:18:20.882Z,97832.63
2023-04-28T23:20:49.124Z,97829.28
2023-04-28T23:23:16.649Z,97821.53
2023-04-28T23:25:44.286Z,97820.84
2023-04-28T23:28:11.602Z,97814.47
2023-04-28T23:30:39.158Z,97823.72
2023-04-28T23:33:06.469Z,97815.06
2023-04-28T23:35:34.026Z,97807.06
2023-04-28T23:38:01.674Z,97804.16
2023-04-28T23:40:29.336Z,97802.31
2023-04-28T23:42:56.806Z,97799.88
2023-04-28T23:45:24.454Z,97797.69
2023-04-28T23:47:52.789Z,97797.34
2023-04-28T23:50:20.320Z,97795.00
2023-04-28T23:52:47.547Z,97796.81
2023-04-28T23:55:15.394Z,97800.66
2023-04-28T23:57:42.694Z,97794.78
